Svinoy — V7RM5 — position and weather

sailwx.info

Track history (hours):
 
Tides and Currents Weather Stations Pressure Air Temp Water Temp Dewpoint Dewpoint Depression Visibility Wind Speed Wind Dir Waves Ship Positions

Svinoy

Last reported at 2014-Aug-23 03:33 UTC. Time now 2014-Aug-23 07:33 UTC.
Position S 34°34' E 018°14'.

Length 190 m; draft 9.7 m.

Type: Ship. MMSI: 538003541.

Date/timePositionNaut miles runAvg speedWind from/ knotsBaromVisibWave heightAir tempDewpointWater temp
2014-Aug-23 03:33S 34°34' E 018°14'1212.0
2014-Aug-23 02:32S 34°41' E 018°27'1211.9
2014-Aug-23 01:33S 34°45' E 018°40'1411.7
2014-Aug-23 00:24S 34°49' E 018°56'428 9.2
2014-Aug-21 02:08S 33°40' E 027°26'812.2
2014-Aug-21 01:30S 33°35' E 027°33'1612.2
2014-Aug-21 00:12S 33°24' E 027°47'8412.0
2014-Aug-20 17:16S 32°28' E 029°00'8512.2
2014-Aug-20 10:21S 31°25' E 030°07'1315.2
2014-Aug-20 09:31S 31°15' E 030°16'6512.8
2014-Aug-20 04:24S 30°20' E 030°59'1011.4
2014-Aug-20 03:33S 30°11' E 031°02'1211.6
2014-Aug-20 02:33S 29°60' E 031°05'8 8.5
2014-Aug-20 01:33S 29°51' E 031°04'2 1.5
2014-Aug-20 00:12S 29°52' E 031°02'0 0.0
2014-Aug-19 23:30S 29°52' E 031°02'0 0.0
2014-Aug-19 22:24S 29°52' E 031°02'0 0.0
2014-Aug-19 21:18S 29°52' E 031°02'0 0.0
2014-Aug-19 20:30S 29°52' E 031°02'0 0.0
2014-Aug-19 19:30S 29°52' E 031°02'0 0.0
2014-Aug-19 18:30S 29°52' E 031°02'0 0.0
2014-Aug-19 17:33S 29°52' E 031°02'6 5.6
2014-Aug-19 16:33S 29°48' E 031°07'2 2.3
2014-Aug-19 15:33S 29°48' E 031°09'8 8.5
2014-Aug-19 14:33S 29°45' E 031°18'1312.6
2014-Aug-19 13:33S 29°40' E 031°32'1313.0
2014-Aug-19 12:33S 29°35' E 031°45'1514.6
2014-Aug-19 11:32S 29°29' E 032°01'  
Track history (hours):
 
Tides and Currents Weather Stations Pressure Air Temp Water Temp Dewpoint Dewpoint Depression Visibility Wind Speed Wind Dir Waves Ship Positions

Svinoy

Last reported at 2014-Aug-23 03:33 UTC. Time now 2014-Aug-23 07:33 UTC.
Position S 34°34' E 018°14'.

Length 190 m; draft 9.7 m.

Type: Ship. MMSI: 538003541.

Date/timePositionNaut miles runAvg speedWind from/ knotsBaromVisibWave heightAir tempDewpointWater temp
2014-Aug-23 03:33S 34°34' E 018°14'1212.0
2014-Aug-23 02:32S 34°41' E 018°27'1211.9
2014-Aug-23 01:33S 34°45' E 018°40'1411.7
2014-Aug-23 00:24S 34°49' E 018°56'428 9.2
2014-Aug-21 02:08S 33°40' E 027°26'812.2
2014-Aug-21 01:30S 33°35' E 027°33'1612.2
2014-Aug-21 00:12S 33°24' E 027°47'8412.0
2014-Aug-20 17:16S 32°28' E 029°00'8512.2
2014-Aug-20 10:21S 31°25' E 030°07'1315.2
2014-Aug-20 09:31S 31°15' E 030°16'6512.8
2014-Aug-20 04:24S 30°20' E 030°59'1011.4
2014-Aug-20 03:33S 30°11' E 031°02'1211.6
2014-Aug-20 02:33S 29°60' E 031°05'8 8.5
2014-Aug-20 01:33S 29°51' E 031°04'2 1.5
2014-Aug-20 00:12S 29°52' E 031°02'0 0.0
2014-Aug-19 23:30S 29°52' E 031°02'0 0.0
2014-Aug-19 22:24S 29°52' E 031°02'0 0.0
2014-Aug-19 21:18S 29°52' E 031°02'0 0.0
2014-Aug-19 20:30S 29°52' E 031°02'0 0.0
2014-Aug-19 19:30S 29°52' E 031°02'0 0.0
2014-Aug-19 18:30S 29°52' E 031°02'0 0.0
2014-Aug-19 17:33S 29°52' E 031°02'6 5.6
2014-Aug-19 16:33S 29°48' E 031°07'2 2.3
2014-Aug-19 15:33S 29°48' E 031°09'8 8.5
2014-Aug-19 14:33S 29°45' E 031°18'1312.6
2014-Aug-19 13:33S 29°40' E 031°32'1313.0
2014-Aug-19 12:33S 29°35' E 031°45'1514.6
2014-Aug-19 11:32S 29°29' E 032°01'  

Dump ship's entire track history